sensor_id;sensor_type;location;lat;lon;timestamp;P1;durP1;ratioP1;P2;durP2;ratioP2
59788;SDS011;47353;51.614;5.530;2024-02-26T00:02:06;5.78;;;3.33;;
59788;SDS011;47353;51.614;5.530;2024-02-26T00:04:32;3.80;;;2.65;;
59788;SDS011;47353;51.614;5.530;2024-02-26T00:06:57;3.53;;;2.85;;
59788;SDS011;47353;51.614;5.530;2024-02-26T00:09:23;4.63;;;3.00;;
59788;SDS011;47353;51.614;5.530;2024-02-26T00:11:48;3.03;;;2.72;;
59788;SDS011;47353;51.614;5.530;2024-02-26T00:14:14;3.80;;;2.90;;
59788;SDS011;47353;51.614;5.530;2024-02-26T00:16:39;6.30;;;3.42;;
59788;SDS011;47353;51.614;5.530;2024-02-26T00:19:10;4.53;;;3.10;;
59788;SDS011;47353;51.614;5.530;2024-02-26T00:21:35;4.55;;;3.10;;
59788;SDS011;47353;51.614;5.530;2024-02-26T00:24:04;3.85;;;3.13;;
59788;SDS011;47353;51.614;5.530;2024-02-26T00:26:30;4.10;;;2.78;;
59788;SDS011;47353;51.614;5.530;2024-02-26T00:28:55;4.60;;;3.13;;
59788;SDS011;47353;51.614;5.530;2024-02-26T00:31:20;5.53;;;3.00;;
59788;SDS011;47353;51.614;5.530;2024-02-26T00:33:46;4.50;;;3.45;;
59788;SDS011;47353;51.614;5.530;2024-02-26T00:36:11;3.25;;;2.90;;
59788;SDS011;47353;51.614;5.530;2024-02-26T00:38:37;3.85;;;3.05;;
59788;SDS011;47353;51.614;5.530;2024-02-26T00:41:02;3.65;;;2.90;;
59788;SDS011;47353;51.614;5.530;2024-02-26T00:43:28;3.10;;;2.70;;
59788;SDS011;47353;51.614;5.530;2024-02-26T00:45:53;4.55;;;3.17;;
59788;SDS011;47353;51.614;5.530;2024-02-26T00:48:18;4.30;;;3.17;;
59788;SDS011;47353;51.614;5.530;2024-02-26T00:50:44;3.05;;;2.72;;
59788;SDS011;47353;51.614;5.530;2024-02-26T00:53:09;4.40;;;3.20;;
59788;SDS011;47353;51.614;5.530;2024-02-26T00:55:35;3.90;;;3.00;;
59788;SDS011;47353;51.614;5.530;2024-02-26T00:58:00;4.05;;;2.95;;
59788;SDS011;47353;51.614;5.530;2024-02-26T01:00:25;2.75;;;2.47;;
59788;SDS011;47353;51.614;5.530;2024-02-26T01:02:51;4.15;;;2.70;;
59788;SDS011;47353;51.614;5.530;2024-02-26T01:05:16;3.30;;;2.28;;
59788;SDS011;47353;51.614;5.530;2024-02-26T01:07:42;3.47;;;2.80;;
59788;SDS011;47353;51.614;5.530;2024-02-26T01:10:07;3.72;;;2.65;;
59788;SDS011;47353;51.614;5.530;2024-02-26T01:12:33;3.17;;;2.60;;
59788;SDS011;47353;51.614;5.530;2024-02-26T01:14:59;4.10;;;2.88;;
59788;SDS011;47353;51.614;5.530;2024-02-26T01:17:28;3.58;;;2.53;;
59788;SDS011;47353;51.614;5.530;2024-02-26T01:19:53;2.90;;;2.60;;
59788;SDS011;47353;51.614;5.530;2024-02-26T01:22:19;3.00;;;2.60;;
59788;SDS011;47353;51.614;5.530;2024-02-26T01:24:44;4.05;;;3.00;;
59788;SDS011;47353;51.614;5.530;2024-02-26T01:27:10;5.72;;;2.85;;
59788;SDS011;47353;51.614;5.530;2024-02-26T01:29:35;3.28;;;2.75;;
59788;SDS011;47353;51.614;5.530;2024-02-26T01:32:01;3.30;;;2.60;;
59788;SDS011;47353;51.614;5.530;2024-02-26T01:34:26;3.42;;;2.70;;
59788;SDS011;47353;51.614;5.530;2024-02-26T01:36:52;3.90;;;3.08;;
59788;SDS011;47353;51.614;5.530;2024-02-26T01:39:17;4.25;;;3.17;;
59788;SDS011;47353;51.614;5.530;2024-02-26T01:41:43;3.90;;;2.85;;
59788;SDS011;47353;51.614;5.530;2024-02-26T01:44:08;3.92;;;2.88;;
59788;SDS011;47353;51.614;5.530;2024-02-26T01:46:38;3.47;;;2.85;;
59788;SDS011;47353;51.614;5.530;2024-02-26T01:49:04;4.05;;;3.35;;
59788;SDS011;47353;51.614;5.530;2024-02-26T01:51:29;3.80;;;3.10;;
59788;SDS011;47353;51.614;5.530;2024-02-26T01:53:57;3.40;;;2.90;;
59788;SDS011;47353;51.614;5.530;2024-02-26T01:56:24;5.07;;;3.60;;
59788;SDS011;47353;51.614;5.530;2024-02-26T01:58:55;3.33;;;2.90;;
59788;SDS011;47353;51.614;5.530;2024-02-26T02:01:21;3.50;;;3.00;;
59788;SDS011;47353;51.614;5.530;2024-02-26T02:03:50;3.55;;;3.03;;
59788;SDS011;47353;51.614;5.530;2024-02-26T02:06:16;5.00;;;3.20;;
59788;SDS011;47353;51.614;5.530;2024-02-26T02:08:42;3.78;;;3.35;;
59788;SDS011;47353;51.614;5.530;2024-02-26T02:11:08;4.07;;;3.03;;
59788;SDS011;47353;51.614;5.530;2024-02-26T02:13:36;3.50;;;2.75;;
59788;SDS011;47353;51.614;5.530;2024-02-26T02:16:02;3.65;;;3.10;;
59788;SDS011;47353;51.614;5.530;2024-02-26T02:18:28;3.92;;;2.80;;
59788;SDS011;47353;51.614;5.530;2024-02-26T02:20:53;3.90;;;2.92;;
59788;SDS011;47353;51.614;5.530;2024-02-26T02:23:18;3.83;;;3.13;;
59788;SDS011;47353;51.614;5.530;2024-02-26T02:25:44;4.20;;;3.22;;
59788;SDS011;47353;51.614;5.530;2024-02-26T02:28:09;4.50;;;3.30;;
59788;SDS011;47353;51.614;5.530;2024-02-26T02:30:35;4.10;;;3.30;;
59788;SDS011;47353;51.614;5.530;2024-02-26T02:33:01;4.38;;;3.33;;
59788;SDS011;47353;51.614;5.530;2024-02-26T02:35:27;5.50;;;3.28;;
59788;SDS011;47353;51.614;5.530;2024-02-26T02:37:52;3.65;;;3.17;;
59788;SDS011;47353;51.614;5.530;2024-02-26T02:40:18;4.50;;;3.03;;
59788;SDS011;47353;51.614;5.530;2024-02-26T02:42:44;5.10;;;3.47;;
59788;SDS011;47353;51.614;5.530;2024-02-26T02:45:09;5.65;;;3.13;;
59788;SDS011;47353;51.614;5.530;2024-02-26T02:47:38;3.55;;;3.25;;
59788;SDS011;47353;51.614;5.530;2024-02-26T02:50:04;4.60;;;3.20;;
59788;SDS011;47353;51.614;5.530;2024-02-26T02:52:30;3.85;;;3.13;;
59788;SDS011;47353;51.614;5.530;2024-02-26T02:54:55;4.63;;;3.20;;
59788;SDS011;47353;51.614;5.530;2024-02-26T02:57:20;5.07;;;3.45;;
59788;SDS011;47353;51.614;5.530;2024-02-26T02:59:46;3.85;;;3.33;;
59788;SDS011;47353;51.614;5.530;2024-02-26T03:02:12;3.90;;;3.00;;
59788;SDS011;47353;51.614;5.530;2024-02-26T03:04:37;4.28;;;3.38;;
59788;SDS011;47353;51.614;5.530;2024-02-26T03:07:03;5.00;;;3.53;;
59788;SDS011;47353;51.614;5.530;2024-02-26T03:09:28;4.20;;;3.25;;
59788;SDS011;47353;51.614;5.530;2024-02-26T03:11:53;4.57;;;3.20;;
59788;SDS011;47353;51.614;5.530;2024-02-26T03:14:19;3.60;;;3.15;;
59788;SDS011;47353;51.614;5.530;2024-02-26T03:16:44;4.47;;;3.13;;
59788;SDS011;47353;51.614;5.530;2024-02-26T03:19:10;4.38;;;3.30;;
59788;SDS011;47353;51.614;5.530;2024-02-26T03:21:35;4.15;;;3.40;;
59788;SDS011;47353;51.614;5.530;2024-02-26T03:24:01;5.03;;;3.63;;
59788;SDS011;47353;51.614;5.530;2024-02-26T03:26:26;4.10;;;3.65;;
59788;SDS011;47353;51.614;5.530;2024-02-26T03:28:52;4.72;;;3.60;;
59788;SDS011;47353;51.614;5.530;2024-02-26T03:31:18;4.20;;;3.35;;
59788;SDS011;47353;51.614;5.530;2024-02-26T03:33:44;5.18;;;3.80;;
59788;SDS011;47353;51.614;5.530;2024-02-26T03:36:09;4.13;;;3.55;;
59788;SDS011;47353;51.614;5.530;2024-02-26T03:38:34;4.95;;;3.75;;
59788;SDS011;47353;51.614;5.530;2024-02-26T03:41:00;4.05;;;3.38;;
59788;SDS011;47353;51.614;5.530;2024-02-26T03:43:25;5.30;;;3.90;;
59788;SDS011;47353;51.614;5.530;2024-02-26T03:45:51;4.47;;;3.50;;
59788;SDS011;47353;51.614;5.530;2024-02-26T03:48:16;5.13;;;3.72;;
59788;SDS011;47353;51.614;5.530;2024-02-26T03:50:41;4.07;;;3.50;;
59788;SDS011;47353;51.614;5.530;2024-02-26T03:53:07;5.07;;;3.55;;
59788;SDS011;47353;51.614;5.530;2024-02-26T03:55:34;4.25;;;3.50;;
59788;SDS011;47353;51.614;5.530;2024-02-26T03:57:59;4.47;;;3.78;;
59788;SDS011;47353;51.614;5.530;2024-02-26T04:00:25;4.28;;;3.40;;
59788;SDS011;47353;51.614;5.530;2024-02-26T04:02:51;4.35;;;3.45;;
59788;SDS011;47353;51.614;5.530;2024-02-26T04:05:16;5.00;;;3.75;;
59788;SDS011;47353;51.614;5.530;2024-02-26T04:07:42;4.45;;;3.65;;
59788;SDS011;47353;51.614;5.530;2024-02-26T04:10:10;4.65;;;3.50;;
59788;SDS011;47353;51.614;5.530;2024-02-26T04:12:39;5.05;;;3.35;;
59788;SDS011;47353;51.614;5.530;2024-02-26T04:15:06;4.78;;;3.60;;
59788;SDS011;47353;51.614;5.530;2024-02-26T04:17:33;4.60;;;3.58;;
59788;SDS011;47353;51.614;5.530;2024-02-26T04:19:58;4.47;;;3.80;;
59788;SDS011;47353;51.614;5.530;2024-02-26T04:22:23;4.55;;;3.63;;
59788;SDS011;47353;51.614;5.530;2024-02-26T04:24:49;4.75;;;3.75;;
59788;SDS011;47353;51.614;5.530;2024-02-26T04:27:14;4.63;;;3.80;;
59788;SDS011;47353;51.614;5.530;2024-02-26T04:29:40;4.82;;;4.30;;
59788;SDS011;47353;51.614;5.530;2024-02-26T04:32:05;4.55;;;3.85;;
59788;SDS011;47353;51.614;5.530;2024-02-26T04:34:31;6.47;;;4.55;;
59788;SDS011;47353;51.614;5.530;2024-02-26T04:36:56;5.15;;;3.90;;
59788;SDS011;47353;51.614;5.530;2024-02-26T04:39:22;5.18;;;4.30;;
59788;SDS011;47353;51.614;5.530;2024-02-26T04:41:47;4.68;;;4.13;;
59788;SDS011;47353;51.614;5.530;2024-02-26T04:44:12;5.53;;;4.00;;
59788;SDS011;47353;51.614;5.530;2024-02-26T04:46:38;4.90;;;4.18;;
59788;SDS011;47353;51.614;5.530;2024-02-26T04:49:03;4.85;;;3.97;;
59788;SDS011;47353;51.614;5.530;2024-02-26T04:51:29;4.90;;;4.15;;
59788;SDS011;47353;51.614;5.530;2024-02-26T04:53:54;5.75;;;3.90;;
59788;SDS011;47353;51.614;5.530;2024-02-26T04:56:22;4.82;;;3.90;;
59788;SDS011;47353;51.614;5.530;2024-02-26T04:58:48;4.35;;;3.83;;
59788;SDS011;47353;51.614;5.530;2024-02-26T05:01:13;5.60;;;4.20;;
59788;SDS011;47353;51.614;5.530;2024-02-26T05:03:41;5.10;;;4.03;;
59788;SDS011;47353;51.614;5.530;2024-02-26T05:06:06;4.85;;;3.92;;
59788;SDS011;47353;51.614;5.530;2024-02-26T05:08:32;5.28;;;4.30;;
59788;SDS011;47353;51.614;5.530;2024-02-26T05:10:58;4.75;;;3.92;;
59788;SDS011;47353;51.614;5.530;2024-02-26T05:13:25;6.15;;;4.38;;
59788;SDS011;47353;51.614;5.530;2024-02-26T05:15:50;4.38;;;3.80;;
59788;SDS011;47353;51.614;5.530;2024-02-26T05:18:17;5.15;;;4.28;;
59788;SDS011;47353;51.614;5.530;2024-02-26T05:20:42;5.43;;;4.20;;
59788;SDS011;47353;51.614;5.530;2024-02-26T05:23:08;5.80;;;4.53;;
59788;SDS011;47353;51.614;5.530;2024-02-26T05:25:34;4.60;;;3.78;;
59788;SDS011;47353;51.614;5.530;2024-02-26T05:28:00;4.78;;;3.90;;
59788;SDS011;47353;51.614;5.530;2024-02-26T05:30:25;4.40;;;3.95;;
59788;SDS011;47353;51.614;5.530;2024-02-26T05:32:53;4.45;;;4.00;;
59788;SDS011;47353;51.614;5.530;2024-02-26T05:35:18;5.45;;;3.90;;
59788;SDS011;47353;51.614;5.530;2024-02-26T05:37:44;4.20;;;3.80;;
59788;SDS011;47353;51.614;5.530;2024-02-26T05:40:09;4.53;;;3.97;;
59788;SDS011;47353;51.614;5.530;2024-02-26T05:42:36;4.97;;;4.20;;
59788;SDS011;47353;51.614;5.530;2024-02-26T05:45:01;5.00;;;4.05;;
59788;SDS011;47353;51.614;5.530;2024-02-26T05:47:34;5.25;;;4.25;;
59788;SDS011;47353;51.614;5.530;2024-02-26T05:49:59;4.60;;;4.03;;
59788;SDS011;47353;51.614;5.530;2024-02-26T05:52:26;4.32;;;3.78;;
59788;SDS011;47353;51.614;5.530;2024-02-26T05:54:52;4.78;;;4.28;;
59788;SDS011;47353;51.614;5.530;2024-02-26T05:57:18;4.25;;;3.83;;
59788;SDS011;47353;51.614;5.530;2024-02-26T05:59:43;4.75;;;4.35;;
59788;SDS011;47353;51.614;5.530;2024-02-26T06:02:09;5.43;;;4.40;;
59788;SDS011;47353;51.614;5.530;2024-02-26T06:04:34;4.85;;;4.00;;
59788;SDS011;47353;51.614;5.530;2024-02-26T06:07:00;5.90;;;5.15;;
59788;SDS011;47353;51.614;5.530;2024-02-26T06:09:25;6.22;;;4.70;;
59788;SDS011;47353;51.614;5.530;2024-02-26T06:11:50;6.35;;;4.70;;
59788;SDS011;47353;51.614;5.530;2024-02-26T06:14:16;5.53;;;4.97;;
59788;SDS011;47353;51.614;5.530;2024-02-26T06:16:43;7.03;;;5.60;;
59788;SDS011;47353;51.614;5.530;2024-02-26T06:19:09;6.88;;;5.53;;
59788;SDS011;47353;51.614;5.530;2024-02-26T06:21:35;6.38;;;5.38;;
59788;SDS011;47353;51.614;5.530;2024-02-26T06:24:00;7.15;;;5.90;;
59788;SDS011;47353;51.614;5.530;2024-02-26T06:26:26;7.60;;;5.53;;
59788;SDS011;47353;51.614;5.530;2024-02-26T06:28:53;6.43;;;5.57;;
59788;SDS011;47353;51.614;5.530;2024-02-26T06:31:19;7.20;;;6.10;;
59788;SDS011;47353;51.614;5.530;2024-02-26T06:33:47;7.63;;;6.15;;
59788;SDS011;47353;51.614;5.530;2024-02-26T06:36:12;7.82;;;6.30;;
59788;SDS011;47353;51.614;5.530;2024-02-26T06:38:38;6.63;;;5.47;;
59788;SDS011;47353;51.614;5.530;2024-02-26T06:41:03;7.50;;;5.85;;
59788;SDS011;47353;51.614;5.530;2024-02-26T06:43:29;7.32;;;6.50;;
59788;SDS011;47353;51.614;5.530;2024-02-26T06:45:54;6.90;;;6.20;;
59788;SDS011;47353;51.614;5.530;2024-02-26T06:48:19;6.38;;;5.78;;
59788;SDS011;47353;51.614;5.530;2024-02-26T06:50:45;8.13;;;5.90;;
59788;SDS011;47353;51.614;5.530;2024-02-26T06:53:10;8.65;;;6.57;;
59788;SDS011;47353;51.614;5.530;2024-02-26T06:55:35;6.85;;;5.55;;
59788;SDS011;47353;51.614;5.530;2024-02-26T06:58:05;5.78;;;4.95;;
59788;SDS011;47353;51.614;5.530;2024-02-26T07:00:30;5.60;;;4.97;;
59788;SDS011;47353;51.614;5.530;2024-02-26T07:02:55;8.23;;;5.13;;
59788;SDS011;47353;51.614;5.530;2024-02-26T07:05:21;6.70;;;5.70;;
59788;SDS011;47353;51.614;5.530;2024-02-26T07:07:46;6.50;;;5.43;;
59788;SDS011;47353;51.614;5.530;2024-02-26T07:10:12;6.47;;;5.53;;
59788;SDS011;47353;51.614;5.530;2024-02-26T07:12:38;6.95;;;5.80;;
59788;SDS011;47353;51.614;5.530;2024-02-26T07:15:04;5.78;;;5.18;;
59788;SDS011;47353;51.614;5.530;2024-02-26T07:17:32;7.25;;;5.53;;
59788;SDS011;47353;51.614;5.530;2024-02-26T07:19:59;6.13;;;5.50;;
59788;SDS011;47353;51.614;5.530;2024-02-26T07:22:24;6.35;;;5.50;;
59788;SDS011;47353;51.614;5.530;2024-02-26T07:24:49;5.40;;;4.90;;
59788;SDS011;47353;51.614;5.530;2024-02-26T07:27:15;7.57;;;5.13;;
59788;SDS011;47353;51.614;5.530;2024-02-26T07:29:42;6.53;;;5.38;;
59788;SDS011;47353;51.614;5.530;2024-02-26T07:32:08;7.63;;;5.43;;
59788;SDS011;47353;51.614;5.530;2024-02-26T07:34:33;5.88;;;5.28;;
59788;SDS011;47353;51.614;5.530;2024-02-26T07:36:59;6.85;;;5.32;;
59788;SDS011;47353;51.614;5.530;2024-02-26T07:39:24;5.53;;;4.82;;
59788;SDS011;47353;51.614;5.530;2024-02-26T07:41:50;6.15;;;5.32;;
59788;SDS011;47353;51.614;5.530;2024-02-26T07:44:18;6.47;;;4.78;;
59788;SDS011;47353;51.614;5.530;2024-02-26T07:46:43;6.38;;;5.32;;
59788;SDS011;47353;51.614;5.530;2024-02-26T07:49:09;7.47;;;5.30;;
59788;SDS011;47353;51.614;5.530;2024-02-26T07:51:35;6.22;;;5.20;;
59788;SDS011;47353;51.614;5.530;2024-02-26T07:54:00;5.15;;;4.43;;
59788;SDS011;47353;51.614;5.530;2024-02-26T07:56:26;5.47;;;4.75;;
59788;SDS011;47353;51.614;5.530;2024-02-26T07:58:52;6.28;;;5.43;;
59788;SDS011;47353;51.614;5.530;2024-02-26T08:01:17;6.05;;;5.13;;
59788;SDS011;47353;51.614;5.530;2024-02-26T08:03:42;6.78;;;5.15;;
59788;SDS011;47353;51.614;5.530;2024-02-26T08:06:08;7.22;;;5.18;;
59788;SDS011;47353;51.614;5.530;2024-02-26T08:08:34;6.30;;;4.95;;
59788;SDS011;47353;51.614;5.530;2024-02-26T08:10:59;5.50;;;4.70;;
59788;SDS011;47353;51.614;5.530;2024-02-26T08:13:25;7.53;;;5.72;;
59788;SDS011;47353;51.614;5.530;2024-02-26T08:15:51;7.25;;;5.85;;
59788;SDS011;47353;51.614;5.530;2024-02-26T08:18:17;7.00;;;6.00;;
59788;SDS011;47353;51.614;5.530;2024-02-26T08:20:42;6.10;;;5.13;;
59788;SDS011;47353;51.614;5.530;2024-02-26T08:23:08;7.65;;;5.70;;
59788;SDS011;47353;51.614;5.530;2024-02-26T08:25:33;6.35;;;5.43;;
59788;SDS011;47353;51.614;5.530;2024-02-26T08:27:58;7.30;;;5.70;;
59788;SDS011;47353;51.614;5.530;2024-02-26T08:30:24;6.85;;;5.90;;
59788;SDS011;47353;51.614;5.530;2024-02-26T08:32:49;7.65;;;5.50;;
59788;SDS011;47353;51.614;5.530;2024-02-26T08:35:15;7.22;;;5.88;;
59788;SDS011;47353;51.614;5.530;2024-02-26T08:37:43;6.35;;;5.60;;
59788;SDS011;47353;51.614;5.530;2024-02-26T08:40:09;6.13;;;5.43;;
59788;SDS011;47353;51.614;5.530;2024-02-26T08:42:35;6.88;;;5.47;;
59788;SDS011;47353;51.614;5.530;2024-02-26T08:45:01;7.00;;;5.70;;
59788;SDS011;47353;51.614;5.530;2024-02-26T08:47:27;6.68;;;5.78;;
59788;SDS011;47353;51.614;5.530;2024-02-26T08:49:53;7.03;;;5.60;;
59788;SDS011;47353;51.614;5.530;2024-02-26T08:52:18;7.10;;;5.97;;
59788;SDS011;47353;51.614;5.530;2024-02-26T08:54:44;9.18;;;6.10;;
59788;SDS011;47353;51.614;5.530;2024-02-26T08:57:09;9.07;;;6.20;;
59788;SDS011;47353;51.614;5.530;2024-02-26T08:59:35;6.53;;;5.65;;
59788;SDS011;47353;51.614;5.530;2024-02-26T09:02:00;7.47;;;6.25;;
59788;SDS011;47353;51.614;5.530;2024-02-26T09:04:26;7.72;;;6.20;;
59788;SDS011;47353;51.614;5.530;2024-02-26T09:06:52;7.75;;;6.70;;
59788;SDS011;47353;51.614;5.530;2024-02-26T09:09:18;8.93;;;6.80;;
59788;SDS011;47353;51.614;5.530;2024-02-26T09:11:43;7.75;;;6.57;;
59788;SDS011;47353;51.614;5.530;2024-02-26T09:14:09;7.38;;;6.45;;
59788;SDS011;47353;51.614;5.530;2024-02-26T09:16:34;8.02;;;6.68;;
59788;SDS011;47353;51.614;5.530;2024-02-26T09:18:59;8.85;;;7.30;;
59788;SDS011;47353;51.614;5.530;2024-02-26T09:21:25;12.82;;;7.28;;
59788;SDS011;47353;51.614;5.530;2024-02-26T09:23:51;8.18;;;7.10;;
59788;SDS011;47353;51.614;5.530;2024-02-26T09:26:17;9.95;;;7.82;;
59788;SDS011;47353;51.614;5.530;2024-02-26T09:28:42;8.23;;;7.30;;
59788;SDS011;47353;51.614;5.530;2024-02-26T09:31:08;11.10;;;8.52;;
59788;SDS011;47353;51.614;5.530;2024-02-26T09:33:33;10.00;;;7.70;;
59788;SDS011;47353;51.614;5.530;2024-02-26T09:35:59;10.20;;;8.00;;
59788;SDS011;47353;51.614;5.530;2024-02-26T09:38:27;10.60;;;7.97;;
59788;SDS011;47353;51.614;5.530;2024-02-26T09:40:54;9.98;;;8.20;;
59788;SDS011;47353;51.614;5.530;2024-02-26T09:43:22;12.63;;;8.85;;
59788;SDS011;47353;51.614;5.530;2024-02-26T09:45:51;12.10;;;9.05;;
59788;SDS011;47353;51.614;5.530;2024-02-26T09:48:20;10.77;;;8.98;;
59788;SDS011;47353;51.614;5.530;2024-02-26T09:50:48;11.40;;;9.35;;
59788;SDS011;47353;51.614;5.530;2024-02-26T09:53:14;10.02;;;8.52;;
59788;SDS011;47353;51.614;5.530;2024-02-26T09:55:40;11.32;;;9.32;;
59788;SDS011;47353;51.614;5.530;2024-02-26T09:58:06;12.95;;;8.95;;
59788;SDS011;47353;51.614;5.530;2024-02-26T10:00:32;12.75;;;9.32;;
59788;SDS011;47353;51.614;5.530;2024-02-26T10:03:03;11.52;;;9.30;;
59788;SDS011;47353;51.614;5.530;2024-02-26T10:05:30;11.18;;;8.98;;
59788;SDS011;47353;51.614;5.530;2024-02-26T10:07:57;12.75;;;10.38;;
59788;SDS011;47353;51.614;5.530;2024-02-26T10:10:25;13.05;;;10.48;;
59788;SDS011;47353;51.614;5.530;2024-02-26T10:12:52;10.32;;;8.82;;
59788;SDS011;47353;51.614;5.530;2024-02-26T10:15:18;14.15;;;10.88;;
59788;SDS011;47353;51.614;5.530;2024-02-26T10:17:43;13.48;;;10.40;;
59788;SDS011;47353;51.614;5.530;2024-02-26T10:20:15;11.82;;;9.70;;
59788;SDS011;47353;51.614;5.530;2024-02-26T10:22:43;13.77;;;10.27;;
59788;SDS011;47353;51.614;5.530;2024-02-26T10:25:09;14.63;;;10.73;;
59788;SDS011;47353;51.614;5.530;2024-02-26T10:27:35;12.07;;;9.98;;
59788;SDS011;47353;51.614;5.530;2024-02-26T10:30:04;13.50;;;10.82;;
59788;SDS011;47353;51.614;5.530;2024-02-26T10:32:42;16.73;;;12.00;;
59788;SDS011;47353;51.614;5.530;2024-02-26T10:35:08;15.48;;;11.70;;
59788;SDS011;47353;51.614;5.530;2024-02-26T10:37:34;13.93;;;10.70;;
59788;SDS011;47353;51.614;5.530;2024-02-26T10:39:59;13.35;;;10.13;;
59788;SDS011;47353;51.614;5.530;2024-02-26T10:42:25;14.05;;;10.75;;
59788;SDS011;47353;51.614;5.530;2024-02-26T10:44:51;14.45;;;10.55;;
59788;SDS011;47353;51.614;5.530;2024-02-26T10:47:16;12.80;;;9.82;;
59788;SDS011;47353;51.614;5.530;2024-02-26T10:49:46;15.15;;;11.20;;
59788;SDS011;47353;51.614;5.530;2024-02-26T10:52:15;14.32;;;11.02;;
59788;SDS011;47353;51.614;5.530;2024-02-26T10:54:41;14.80;;;10.60;;
59788;SDS011;47353;51.614;5.530;2024-02-26T10:57:09;14.73;;;10.38;;
59788;SDS011;47353;51.614;5.530;2024-02-26T10:59:36;15.90;;;10.95;;
59788;SDS011;47353;51.614;5.530;2024-02-26T11:02:03;13.77;;;10.00;;
59788;SDS011;47353;51.614;5.530;2024-02-26T11:04:29;13.60;;;10.20;;
59788;SDS011;47353;51.614;5.530;2024-02-26T11:06:56;13.88;;;9.88;;
59788;SDS011;47353;51.614;5.530;2024-02-26T11:09:23;14.85;;;10.27;;
59788;SDS011;47353;51.614;5.530;2024-02-26T11:11:49;13.88;;;10.10;;
59788;SDS011;47353;51.614;5.530;2024-02-26T11:14:19;15.65;;;10.80;;
59788;SDS011;47353;51.614;5.530;2024-02-26T11:16:45;16.65;;;11.65;;
59788;SDS011;47353;51.614;5.530;2024-02-26T11:19:12;15.10;;;10.60;;
59788;SDS011;47353;51.614;5.530;2024-02-26T11:21:39;17.98;;;11.15;;
59788;SDS011;47353;51.614;5.530;2024-02-26T11:24:14;16.17;;;11.30;;
59788;SDS011;47353;51.614;5.530;2024-02-26T11:26:50;18.83;;;12.30;;
59788;SDS011;47353;51.614;5.530;2024-02-26T11:29:37;19.13;;;11.60;;
59788;SDS011;47353;51.614;5.530;2024-02-26T11:32:06;20.83;;;11.98;;
59788;SDS011;47353;51.614;5.530;2024-02-26T11:34:32;18.65;;;12.00;;
59788;SDS011;47353;51.614;5.530;2024-02-26T11:36:58;17.92;;;12.07;;
59788;SDS011;47353;51.614;5.530;2024-02-26T11:39:34;18.02;;;11.70;;
59788;SDS011;47353;51.614;5.530;2024-02-26T11:42:09;17.35;;;11.52;;
59788;SDS011;47353;51.614;5.530;2024-02-26T11:44:38;19.15;;;11.73;;
59788;SDS011;47353;51.614;5.530;2024-02-26T11:47:20;17.52;;;12.10;;
59788;SDS011;47353;51.614;5.530;2024-02-26T11:49:47;20.17;;;12.68;;
59788;SDS011;47353;51.614;5.530;2024-02-26T11:52:14;16.88;;;11.38;;
59788;SDS011;47353;51.614;5.530;2024-02-26T11:54:44;17.80;;;11.73;;
59788;SDS011;47353;51.614;5.530;2024-02-26T11:57:27;17.05;;;11.90;;
59788;SDS011;47353;51.614;5.530;2024-02-26T12:05:26;17.33;;;11.55;;
59788;SDS011;47353;51.614;5.530;2024-02-26T12:10:23;18.35;;;12.48;;
59788;SDS011;47353;51.614;5.530;2024-02-26T12:12:54;20.63;;;13.60;;
59788;SDS011;47353;51.614;5.530;2024-02-26T12:15:23;20.35;;;13.43;;
59788;SDS011;47353;51.614;5.530;2024-02-26T12:17:49;19.73;;;13.25;;
59788;SDS011;47353;51.614;5.530;2024-02-26T12:20:16;18.50;;;12.32;;
59788;SDS011;47353;51.614;5.530;2024-02-26T12:22:44;19.27;;;13.13;;
59788;SDS011;47353;51.614;5.530;2024-02-26T12:25:13;16.33;;;12.40;;
59788;SDS011;47353;51.614;5.530;2024-02-26T12:27:39;18.58;;;12.18;;
59788;SDS011;47353;51.614;5.530;2024-02-26T12:30:04;16.98;;;11.88;;
59788;SDS011;47353;51.614;5.530;2024-02-26T12:32:31;20.05;;;13.52;;
59788;SDS011;47353;51.614;5.530;2024-02-26T12:34:57;17.73;;;12.48;;
59788;SDS011;47353;51.614;5.530;2024-02-26T12:37:23;18.52;;;12.95;;
59788;SDS011;47353;51.614;5.530;2024-02-26T12:39:49;19.90;;;12.85;;
59788;SDS011;47353;51.614;5.530;2024-02-26T12:42:15;18.40;;;12.68;;
59788;SDS011;47353;51.614;5.530;2024-02-26T12:44:40;18.38;;;12.48;;
59788;SDS011;47353;51.614;5.530;2024-02-26T12:47:06;16.92;;;12.02;;
59788;SDS011;47353;51.614;5.530;2024-02-26T12:49:31;18.33;;;12.13;;
59788;SDS011;47353;51.614;5.530;2024-02-26T12:51:57;16.17;;;11.55;;
59788;SDS011;47353;51.614;5.530;2024-02-26T12:54:32;17.85;;;12.48;;
59788;SDS011;47353;51.614;5.530;2024-02-26T12:57:00;16.13;;;11.45;;
59788;SDS011;47353;51.614;5.530;2024-02-26T12:59:27;19.50;;;12.75;;
59788;SDS011;47353;51.614;5.530;2024-02-26T13:01:53;17.88;;;11.93;;
59788;SDS011;47353;51.614;5.530;2024-02-26T13:04:18;14.93;;;10.75;;
59788;SDS011;47353;51.614;5.530;2024-02-26T13:06:44;18.52;;;12.00;;
59788;SDS011;47353;51.614;5.530;2024-02-26T13:09:12;13.90;;;10.15;;
59788;SDS011;47353;51.614;5.530;2024-02-26T13:11:42;16.38;;;11.10;;
59788;SDS011;47353;51.614;5.530;2024-02-26T13:14:07;14.63;;;10.23;;
59788;SDS011;47353;51.614;5.530;2024-02-26T13:16:33;14.48;;;10.48;;
59788;SDS011;47353;51.614;5.530;2024-02-26T13:19:09;13.43;;;9.63;;
59788;SDS011;47353;51.614;5.530;2024-02-26T13:21:35;14.98;;;10.35;;
59788;SDS011;47353;51.614;5.530;2024-02-26T13:24:00;14.90;;;10.77;;
59788;SDS011;47353;51.614;5.530;2024-02-26T13:26:26;14.07;;;10.40;;
59788;SDS011;47353;51.614;5.530;2024-02-26T13:29:01;12.57;;;8.93;;
59788;SDS011;47353;51.614;5.530;2024-02-26T13:31:28;14.30;;;8.82;;
59788;SDS011;47353;51.614;5.530;2024-02-26T13:33:53;12.55;;;8.88;;
59788;SDS011;47353;51.614;5.530;2024-02-26T13:36:21;11.55;;;8.15;;
59788;SDS011;47353;51.614;5.530;2024-02-26T13:38:54;12.00;;;8.48;;
59788;SDS011;47353;51.614;5.530;2024-02-26T13:41:21;12.18;;;8.20;;
59788;SDS011;47353;51.614;5.530;2024-02-26T13:43:47;13.30;;;8.63;;
59788;SDS011;47353;51.614;5.530;2024-02-26T13:46:13;15.02;;;8.30;;
59788;SDS011;47353;51.614;5.530;2024-02-26T13:48:40;11.43;;;7.93;;
59788;SDS011;47353;51.614;5.530;2024-02-26T13:51:06;9.73;;;7.70;;
59788;SDS011;47353;51.614;5.530;2024-02-26T13:53:32;10.90;;;7.43;;
59788;SDS011;47353;51.614;5.530;2024-02-26T13:55:57;9.60;;;7.63;;
59788;SDS011;47353;51.614;5.530;2024-02-26T13:58:26;9.68;;;7.22;;
59788;SDS011;47353;51.614;5.530;2024-02-26T14:00:52;11.50;;;8.00;;
59788;SDS011;47353;51.614;5.530;2024-02-26T14:03:20;9.52;;;6.60;;
59788;SDS011;47353;51.614;5.530;2024-02-26T14:05:46;8.60;;;7.03;;
59788;SDS011;47353;51.614;5.530;2024-02-26T14:08:12;13.73;;;8.02;;
59788;SDS011;47353;51.614;5.530;2024-02-26T14:10:38;11.13;;;7.70;;
59788;SDS011;47353;51.614;5.530;2024-02-26T14:13:04;9.63;;;7.30;;
59788;SDS011;47353;51.614;5.530;2024-02-26T14:15:29;11.00;;;7.43;;
59788;SDS011;47353;51.614;5.530;2024-02-26T14:17:55;12.23;;;8.23;;
59788;SDS011;47353;51.614;5.530;2024-02-26T14:20:21;10.13;;;7.43;;
59788;SDS011;47353;51.614;5.530;2024-02-26T14:22:48;9.77;;;7.03;;
59788;SDS011;47353;51.614;5.530;2024-02-26T14:25:13;9.40;;;7.30;;
59788;SDS011;47353;51.614;5.530;2024-02-26T14:27:39;10.70;;;7.40;;
59788;SDS011;47353;51.614;5.530;2024-02-26T14:30:05;9.52;;;6.63;;
59788;SDS011;47353;51.614;5.530;2024-02-26T14:32:31;8.77;;;6.55;;
59788;SDS011;47353;51.614;5.530;2024-02-26T14:35:00;8.40;;;6.90;;
59788;SDS011;47353;51.614;5.530;2024-02-26T14:37:26;10.70;;;7.55;;
59788;SDS011;47353;51.614;5.530;2024-02-26T14:39:51;11.52;;;8.48;;
59788;SDS011;47353;51.614;5.530;2024-02-26T14:42:18;12.15;;;7.53;;
59788;SDS011;47353;51.614;5.530;2024-02-26T14:44:43;11.23;;;8.07;;